Time;durP1;ratioP1;P1;durP2;ratioP2;P2;SDS_P1;SDS_P2;PMS_P1;PMS_P2;Temp;Humidity;BMP_temperature;BMP_pressure;BME280_temperature;BME280_humidity;BME280_pressure;Samples;Min_cycle;Max_cycle;Signal;HPM_P1;HPM_P2
2022/11/21 00:01:22;;;;;;;14.48;11.20;;;3.40;99.90;;;;;;5068007;28;20097;-79
2022/11/21 00:03:47;;;;;;;16.52;14.45;;;3.40;99.90;;;;;;5063924;28;20146;-80
2022/11/21 00:06:14;;;;;;;16.52;12.57;;;3.50;99.90;;;;;;5065766;28;20210;-81
2022/11/21 00:08:40;;;;;;;23.90;14.98;;;3.50;99.90;;;;;;5059004;28;20147;-81
2022/11/21 00:11:05;;;;;;;18.23;13.40;;;4.30;99.90;;;;;;5066667;28;20108;-80
2022/11/21 00:13:31;;;;;;;14.82;11.18;;;3.70;99.90;;;;;;5065221;28;20054;-81
2022/11/21 00:16:05;;;;;;;16.15;13.27;;;3.50;99.90;;;;;;5069257;28;20546;-81
2022/11/21 00:18:33;;;;;;;19.40;12.73;;;3.50;99.90;;;;;;5062619;28;20119;-79
2022/11/21 00:21:10;;;;;;;18.13;13.80;;;3.50;99.90;;;;;;5061646;28;20058;-80
2022/11/21 00:23:36;;;;;;;18.08;13.60;;;3.50;99.90;;;;;;5068378;28;20811;-82
2022/11/21 00:26:09;;;;;;;20.27;14.52;;;3.50;99.90;;;;;;5069513;28;20036;-80
2022/11/21 00:28:36;;;;;;;17.60;13.05;;;3.80;99.90;;;;;;5056751;28;20111;-82
2022/11/21 00:31:02;;;;;;;16.48;13.18;;;3.40;99.90;;;;;;5062320;28;20721;-80
2022/11/21 00:33:28;;;;;;;18.08;13.02;;;3.40;99.90;;;;;;5061993;28;20040;-80
2022/11/21 00:35:53;;;;;;;19.63;13.60;;;3.40;99.90;;;;;;5061686;28;20067;-81
2022/11/21 00:38:19;;;;;;;18.98;14.10;;;3.40;99.90;;;;;;5060248;28;20476;-81
2022/11/21 00:40:45;;;;;;;19.52;13.88;;;3.40;99.90;;;;;;5060392;28;20063;-80
2022/11/21 00:43:11;;;;;;;15.70;12.82;;;3.40;99.90;;;;;;5068147;28;20083;-80
2022/11/21 00:45:36;;;;;;;16.50;13.20;;;3.80;99.90;;;;;;5057619;28;20048;-81
2022/11/21 00:48:02;;;;;;;14.35;11.65;;;3.50;99.90;;;;;;5058706;28;20165;-80
2022/11/21 00:50:28;;;;;;;18.15;13.30;;;3.50;99.90;;;;;;5074065;28;20044;-80
2022/11/21 00:52:55;;;;;;;21.40;13.98;;;3.50;99.90;;;;;;5064086;28;20052;-81
2022/11/21 00:55:21;;;;;;;17.98;12.55;;;3.40;99.90;;;;;;5065983;28;20064;-81
2022/11/21 00:57:47;;;;;;;18.52;13.48;;;3.30;99.90;;;;;;5060993;28;20388;-80
2022/11/21 01:00:13;;;;;;;18.33;13.80;;;3.40;99.90;;;;;;5062028;28;20049;-80
2022/11/21 01:02:38;;;;;;;20.60;13.00;;;3.00;99.90;;;;;;5064337;28;20052;-81
2022/11/21 01:05:05;;;;;;;21.90;14.85;;;3.30;99.90;;;;;;5057819;28;20871;-80
2022/11/21 01:07:31;;;;;;;19.45;14.40;;;3.30;99.90;;;;;;5058936;28;20053;-79
2022/11/21 01:09:57;;;;;;;16.13;13.90;;;3.30;99.90;;;;;;5068635;28;20056;-80
2022/11/21 01:12:22;;;;;;;18.02;13.60;;;3.30;99.90;;;;;;5076537;28;20048;-80
2022/11/21 01:14:49;;;;;;;16.83;14.70;;;3.20;99.90;;;;;;5058464;28;20131;-81
2022/11/21 01:17:15;;;;;;;16.92;13.20;;;3.20;99.90;;;;;;5059535;28;20125;-80
2022/11/21 01:19:41;;;;;;;19.67;12.60;;;3.10;99.90;;;;;;5067379;28;20373;-80
2022/11/21 01:22:07;;;;;;;16.42;11.57;;;3.60;99.90;;;;;;5062549;28;20048;-81
2022/11/21 01:24:32;;;;;;;16.52;12.52;;;3.60;99.90;;;;;;5062637;28;20056;-80
2022/11/21 01:26:58;;;;;;;18.52;13.65;;;3.70;99.90;;;;;;5058472;28;20040;-81
2022/11/21 01:29:24;;;;;;;17.88;13.88;;;3.20;99.90;;;;;;5056195;28;20051;-80
2022/11/21 01:31:50;;;;;;;17.95;14.20;;;2.90;99.90;;;;;;5059146;28;20379;-80
2022/11/21 01:34:15;;;;;;;18.55;13.82;;;3.70;99.90;;;;;;5057104;28;20062;-80
2022/11/21 01:36:41;;;;;;;17.13;11.95;;;2.80;99.90;;;;;;5062278;28;20044;-80
2022/11/21 01:39:09;;;;;;;16.52;12.73;;;2.80;99.90;;;;;;5061174;28;20044;-80
2022/11/21 01:41:45;;;;;;;18.85;14.88;;;2.80;99.90;;;;;;5057758;28;20290;-81
2022/11/21 01:44:15;;;;;;;17.50;12.43;;;2.70;99.90;;;;;;5064801;28;20036;-80
2022/11/21 01:46:41;;;;;;;21.63;14.48;;;2.70;99.90;;;;;;5060021;28;20053;-81
2022/11/21 01:49:11;;;;;;;18.67;13.98;;;2.60;99.90;;;;;;5058348;28;20173;-81
2022/11/21 01:52:03;;;;;;;16.15;12.52;;;2.60;99.90;;;;;;5061644;28;20080;-81
2022/11/21 01:54:35;;;;;;;19.33;14.25;;;2.40;99.90;;;;;;5057831;28;20036;-80
2022/11/21 01:57:07;;;;;;;16.13;13.40;;;3.40;99.90;;;;;;5050508;28;20040;-80
2022/11/21 01:59:57;;;;;;;19.52;14.30;;;2.40;99.90;;;;;;5057442;28;20044;-80
2022/11/21 02:02:27;;;;;;;17.35;14.50;;;2.40;99.90;;;;;;5057459;28;20086;-81
2022/11/21 02:04:54;;;;;;;20.48;14.15;;;2.40;99.90;;;;;;5057262;28;20064;-81
2022/11/21 02:07:21;;;;;;;20.30;14.95;;;3.20;99.90;;;;;;5062002;28;20060;-81
2022/11/21 02:09:57;;;;;;;23.55;15.82;;;2.80;99.90;;;;;;5061242;28;20143;-81
2022/11/21 02:12:44;;;;;;;21.05;14.80;;;2.30;99.90;;;;;;5061173;28;20048;-80
2022/11/21 02:15:11;;;;;;;19.02;14.50;;;2.30;99.90;;;;;;5054543;28;20040;-79
2022/11/21 02:17:37;;;;;;;23.70;15.80;;;2.90;99.90;;;;;;5059723;28;20048;-80
2022/11/21 02:20:06;;;;;;;17.60;13.50;;;2.60;99.90;;;;;;5059766;28;20080;-81
2022/11/21 02:22:44;;;;;;;21.77;15.50;;;2.20;99.90;;;;;;5056847;28;20057;-81
2022/11/21 02:25:16;;;;;;;21.17;15.45;;;2.20;99.90;;;;;;5054850;28;20937;-80
2022/11/21 02:27:42;;;;;;;23.37;15.80;;;3.20;99.90;;;;;;5068916;28;20342;-81
2022/11/21 02:30:09;;;;;;;22.17;14.95;;;2.10;99.90;;;;;;5066149;28;20808;-80
2022/11/21 02:32:46;;;;;;;23.35;16.20;;;2.10;99.90;;;;;;5062090;28;20136;-81
2022/11/21 02:35:13;;;;;;;18.50;12.82;;;2.00;99.90;;;;;;5053663;28;20044;-81
2022/11/21 02:37:40;;;;;;;17.80;13.50;;;2.00;99.90;;;;;;5068128;28;20051;-81
2022/11/21 02:40:10;;;;;;;19.55;14.57;;;2.00;99.90;;;;;;5058441;28;20118;-81
2022/11/21 02:42:44;;;;;;;18.45;13.60;;;2.00;99.90;;;;;;5055960;28;20094;-81
2022/11/21 02:45:24;;;;;;;20.73;14.40;;;1.90;99.90;;;;;;5055727;28;20814;-79
2022/11/21 02:47:53;;;;;;;18.65;14.02;;;1.90;99.90;;;;;;5055462;28;20381;-81
2022/11/21 02:50:26;;;;;;;17.80;14.88;;;1.90;99.90;;;;;;5057518;28;20074;-79
2022/11/21 02:52:51;;;;;;;20.23;15.48;;;2.10;99.90;;;;;;5061008;28;20044;-81
2022/11/21 02:55:17;;;;;;;19.52;14.77;;;1.90;99.90;;;;;;5059970;28;20709;-81
2022/11/21 02:57:46;;;;;;;18.95;14.23;;;1.90;99.90;;;;;;5061153;28;20086;-81
2022/11/21 03:00:12;;;;;;;16.17;13.90;;;2.10;99.90;;;;;;5059022;28;20052;-81
2022/11/21 03:02:37;;;;;;;20.42;14.98;;;1.80;99.90;;;;;;5060209;28;20040;-80
2022/11/21 03:05:05;;;;;;;17.35;14.68;;;1.70;99.90;;;;;;5059574;28;20071;-80
2022/11/21 03:07:30;;;;;;;23.67;15.35;;;1.70;99.90;;;;;;5060107;28;20098;-79
2022/11/21 03:09:56;;;;;;;21.67;15.57;;;1.60;99.90;;;;;;5064866;28;20048;-81
2022/11/21 03:12:22;;;;;;;20.60;14.50;;;1.70;99.90;;;;;;5060143;28;20059;-79
2022/11/21 03:14:47;;;;;;;17.95;15.00;;;2.50;99.90;;;;;;5068387;28;20045;-80
2022/11/21 03:17:13;;;;;;;21.75;15.10;;;2.10;99.90;;;;;;5059789;28;20055;-80
2022/11/21 03:19:39;;;;;;;23.52;15.95;;;1.60;99.90;;;;;;5043163;28;20510;-80
2022/11/21 03:22:05;;;;;;;18.95;14.52;;;1.60;99.90;;;;;;5065070;28;20049;-81
2022/11/21 03:24:31;;;;;;;20.98;15.77;;;2.70;99.90;;;;;;5062093;28;20040;-79
2022/11/21 03:26:57;;;;;;;21.35;16.60;;;1.70;99.90;;;;;;5070542;28;20063;-80
2022/11/21 03:29:22;;;;;;;18.95;15.35;;;1.50;99.90;;;;;;5059781;28;20462;-80
2022/11/21 03:31:48;;;;;;;19.90;14.15;;;1.40;99.90;;;;;;5093163;27;20595;-80
2022/11/21 03:34:14;;;;;;;17.77;13.73;;;1.40;99.90;;;;;;5058051;28;20048;-80
2022/11/21 03:36:39;;;;;;;16.48;12.85;;;1.30;99.90;;;;;;5059369;28;20048;-80
2022/11/21 03:39:05;;;;;;;20.17;14.88;;;1.90;99.90;;;;;;5058646;28;20143;-80
2022/11/21 03:41:31;;;;;;;18.30;15.15;;;1.30;99.90;;;;;;5058709;28;20138;-80
2022/11/21 03:43:59;;;;;;;20.48;14.52;;;1.40;99.90;;;;;;5058053;28;20052;-79
2022/11/21 03:46:24;;;;;;;25.60;17.30;;;1.40;99.90;;;;;;5059441;28;20155;-80
2022/11/21 03:48:50;;;;;;;19.75;15.15;;;1.30;99.90;;;;;;5058992;28;20044;-79
2022/11/21 03:51:17;;;;;;;25.27;17.90;;;1.30;99.90;;;;;;5059233;28;20048;-80
2022/11/21 03:53:43;;;;;;;18.67;14.60;;;1.40;99.90;;;;;;5059849;28;20412;-80
2022/11/21 03:56:09;;;;;;;23.02;15.75;;;2.80;99.90;;;;;;5058459;28;20056;-80
2022/11/21 03:58:34;;;;;;;17.90;15.23;;;1.80;99.90;;;;;;5060586;28;20045;-79
2022/11/21 04:01:00;;;;;;;23.58;14.73;;;1.40;99.90;;;;;;5058250;28;20189;-79
2022/11/21 04:03:26;;;;;;;20.40;15.77;;;1.10;99.90;;;;;;5067221;28;20632;-79
2022/11/21 04:05:51;;;;;;;23.20;16.35;;;1.20;99.90;;;;;;5060751;28;20088;-79
2022/11/21 04:08:17;;;;;;;24.92;15.63;;;2.00;99.90;;;;;;5059556;28;20052;-78
2022/11/21 04:10:50;;;;;;;22.52;15.38;;;1.20;99.90;;;;;;5062846;28;20056;-79
2022/11/21 04:13:16;;;;;;;20.80;15.35;;;2.10;99.90;;;;;;5055308;28;20119;-79
2022/11/21 04:15:42;;;;;;;20.20;15.20;;;1.40;99.90;;;;;;5058537;28;20036;-79
2022/11/21 04:18:08;;;;;;;23.70;17.08;;;1.10;99.90;;;;;;5065747;28;20044;-80
2022/11/21 04:20:34;;;;;;;20.08;15.05;;;1.10;99.90;;;;;;5058104;28;20561;-79
2022/11/21 04:23:00;;;;;;;18.98;12.95;;;1.10;99.90;;;;;;5063603;28;20058;-79
2022/11/21 04:25:25;;;;;;;22.55;15.30;;;2.40;99.90;;;;;;5058571;28;20059;-79
2022/11/21 04:27:55;;;;;;;24.95;15.85;;;1.70;99.90;;;;;;5057256;28;20114;-80
2022/11/21 04:30:21;;;;;;;20.95;14.35;;;1.10;99.90;;;;;;5056509;28;20048;-79
2022/11/21 04:32:49;;;;;;;21.13;15.07;;;1.20;99.90;;;;;;5058125;28;20049;-79
2022/11/21 04:35:14;;;;;;;19.40;16.15;;;2.00;99.90;;;;;;5071641;28;20048;-79
2022/11/21 04:37:40;;;;;;;24.90;15.57;;;1.10;99.90;;;;;;5067103;28;20173;-80
2022/11/21 04:40:06;;;;;;;26.38;16.40;;;2.30;99.90;;;;;;5057715;28;20048;-79
2022/11/21 04:42:32;;;;;;;24.02;15.02;;;1.10;99.90;;;;;;5067040;28;20060;-80
2022/11/21 04:44:57;;;;;;;18.50;13.88;;;1.00;99.90;;;;;;5058477;28;20056;-80
2022/11/21 04:47:23;;;;;;;21.65;16.00;;;1.00;99.90;;;;;;5068643;28;20040;-80
2022/11/21 04:49:49;;;;;;;19.98;14.57;;;1.00;99.90;;;;;;5063072;28;20117;-79
2022/11/21 04:52:14;;;;;;;20.98;15.30;;;2.20;99.90;;;;;;5062686;28;20161;-80
2022/11/21 04:54:40;;;;;;;24.35;16.45;;;0.90;99.90;;;;;;5069037;28;20153;-80
2022/11/21 04:57:06;;;;;;;19.42;14.43;;;0.90;99.90;;;;;;5057091;28;20048;-78
2022/11/21 04:59:32;;;;;;;18.80;14.40;;;0.90;99.90;;;;;;5060767;28;20056;-80
2022/11/21 05:01:57;;;;;;;23.55;15.82;;;1.40;99.90;;;;;;5059178;28;20464;-80
2022/11/21 05:04:23;;;;;;;24.02;15.60;;;0.90;99.90;;;;;;5065174;28;20896;-79
2022/11/21 05:06:49;;;;;;;20.15;14.60;;;1.80;99.90;;;;;;5058533;28;20044;-80
2022/11/21 05:09:14;;;;;;;21.38;15.65;;;0.90;99.90;;;;;;5057831;28;20502;-80
2022/11/21 05:14:25;;;;;;;23.17;15.30;;;1.70;99.90;;;;;;5067821;28;20686;-80
2022/11/21 05:16:52;;;;;;;21.75;17.17;;;0.90;99.90;;;;;;5055699;28;20051;-79
2022/11/21 05:19:17;;;;;;;23.60;16.13;;;1.20;99.90;;;;;;5058990;28;20135;-79
2022/11/21 05:21:43;;;;;;;22.27;16.65;;;1.50;99.90;;;;;;5056770;28;20059;-80
2022/11/21 05:24:09;;;;;;;22.00;16.85;;;1.10;99.90;;;;;;5060020;28;20132;-79
2022/11/21 05:26:34;;;;;;;21.23;14.60;;;0.90;99.90;;;;;;5058133;28;20047;-80
2022/11/21 05:29:00;;;;;;;21.45;14.52;;;1.00;99.90;;;;;;5070696;28;20836;-80
2022/11/21 05:31:26;;;;;;;21.33;15.75;;;0.90;99.90;;;;;;5055979;28;20064;-78
2022/11/21 05:33:51;;;;;;;20.85;14.90;;;0.90;99.90;;;;;;5064963;28;20041;-80
2022/11/21 05:36:17;;;;;;;24.00;15.45;;;2.30;99.90;;;;;;5089829;28;20087;-80
2022/11/21 05:38:43;;;;;;;21.65;16.67;;;1.10;99.90;;;;;;5058478;28;20435;-79
2022/11/21 05:41:08;;;;;;;17.65;14.27;;;0.90;99.90;;;;;;5067795;28;20499;-79
2022/11/21 05:43:46;;;;;;;20.17;15.02;;;1.30;99.90;;;;;;5057103;28;20880;-79
2022/11/21 05:46:18;;;;;;;21.45;15.57;;;0.80;99.90;;;;;;5051312;28;20040;-79
2022/11/21 05:48:45;;;;;;;22.17;15.55;;;0.80;99.90;;;;;;5066678;28;20129;-79
2022/11/21 05:51:11;;;;;;;25.60;17.35;;;1.60;99.90;;;;;;5066628;28;20058;-79
2022/11/21 05:53:36;;;;;;;24.15;17.38;;;1.00;99.90;;;;;;5064205;28;20049;-80
2022/11/21 05:56:11;;;;;;;25.92;17.38;;;1.80;99.90;;;;;;5058073;28;20048;-80
2022/11/21 05:58:37;;;;;;;26.55;18.20;;;0.70;99.90;;;;;;5060041;28;20044;-79
2022/11/21 06:01:04;;;;;;;24.08;17.85;;;0.60;99.90;;;;;;5062332;28;20738;-81
2022/11/21 06:03:33;;;;;;;23.80;18.35;;;0.90;99.90;;;;;;5057751;28;20634;-81
2022/11/21 06:06:07;;;;;;;22.92;15.70;;;0.60;99.90;;;;;;5061024;28;20047;-79
2022/11/21 06:08:35;;;;;;;22.77;16.00;;;0.40;99.90;;;;;;5057177;28;20098;-80
2022/11/21 06:11:02;;;;;;;21.95;15.20;;;0.40;99.90;;;;;;5062704;28;20045;-80
2022/11/21 06:13:29;;;;;;;26.55;17.42;;;0.40;99.90;;;;;;5065197;28;20059;-80
2022/11/21 06:16:00;;;;;;;25.67;17.85;;;1.30;99.90;;;;;;5066285;28;20052;-80
2022/11/21 06:18:27;;;;;;;23.02;15.70;;;1.50;99.90;;;;;;5056967;28;20037;-81
2022/11/21 06:20:59;;;;;;;24.65;17.90;;;0.30;99.90;;;;;;5067550;28;20044;-79
2022/11/21 06:23:24;;;;;;;25.15;17.63;;;0.30;99.90;;;;;;5054037;28;20155;-80
2022/11/21 06:25:56;;;;;;;22.67;17.35;;;0.50;99.90;;;;;;5056162;28;20913;-78
2022/11/21 06:28:22;;;;;;;22.90;17.88;;;0.50;99.90;;;;;;5094052;27;20159;-79
2022/11/21 06:30:50;;;;;;;24.20;16.35;;;0.50;99.90;;;;;;5064492;28;20048;-80
2022/11/21 06:33:16;;;;;;;27.40;18.48;;;0.40;99.90;;;;;;5065416;28;20049;-80
2022/11/21 06:35:43;;;;;;;24.23;16.10;;;1.40;99.90;;;;;;5060519;28;20627;-79
2022/11/21 06:38:11;;;;;;;26.33;18.65;;;0.20;99.90;;;;;;5091601;27;20047;-78
2022/11/21 06:40:37;;;;;;;21.08;15.55;;;0.10;99.90;;;;;;5067453;28;20052;-81
2022/11/21 06:43:02;;;;;;;31.30;16.92;;;0.10;99.90;;;;;;5067519;28;20059;-79
2022/11/21 06:45:28;;;;;;;21.17;15.18;;;0.10;99.90;;;;;;5071190;28;20047;-80
2022/11/21 06:47:54;;;;;;;27.85;18.17;;;0.10;99.90;;;;;;5064921;28;20040;-78
2022/11/21 06:50:20;;;;;;;23.98;16.42;;;0.10;99.90;;;;;;5061404;28;20048;-80
2022/11/21 06:52:45;;;;;;;26.85;16.67;;;0.20;99.90;;;;;;5098740;27;20051;-80
2022/11/21 06:55:11;;;;;;;25.08;16.45;;;0.30;99.90;;;;;;5062058;28;20534;-78
2022/11/21 06:57:37;;;;;;;28.00;16.80;;;0.30;99.90;;;;;;5061055;28;20044;-78
2022/11/21 07:00:04;;;;;;;22.80;16.13;;;0.70;99.90;;;;;;5064770;28;20156;-79
2022/11/21 07:02:30;;;;;;;22.45;16.35;;;0.40;99.90;;;;;;5063022;28;20044;-79
2022/11/21 07:04:55;;;;;;;28.95;18.63;;;0.30;99.90;;;;;;5064588;28;20059;-79
2022/11/21 07:07:21;;;;;;;23.42;15.80;;;0.30;99.90;;;;;;5063863;28;20149;-80
2022/11/21 07:09:47;;;;;;;24.35;16.95;;;0.30;99.90;;;;;;5061837;28;20086;-79
2022/11/21 07:15:10;;;;;;;21.52;16.05;;;1.40;99.90;;;;;;5021867;28;20892;-78
2022/11/21 07:17:36;;;;;;;23.95;18.48;;;1.90;99.90;;;;;;5058216;28;20052;-80
2022/11/21 07:20:02;;;;;;;25.10;16.30;;;1.20;99.90;;;;;;5062176;28;20109;-78
2022/11/21 07:22:28;;;;;;;23.75;16.95;;;0.40;99.90;;;;;;5062502;28;20495;-79
2022/11/21 07:24:53;;;;;;;26.30;17.15;;;0.50;99.90;;;;;;5058247;28;20051;-80
2022/11/21 07:27:19;;;;;;;29.17;18.23;;;1.60;99.90;;;;;;5056515;28;20192;-79
2022/11/21 07:29:45;;;;;;;23.45;15.75;;;1.30;99.90;;;;;;5060423;28;20570;-81
2022/11/21 07:32:11;;;;;;;25.15;16.98;;;0.40;99.90;;;;;;5060722;28;20155;-78
2022/11/21 07:34:36;;;;;;;26.80;18.13;;;0.50;99.90;;;;;;5062456;28;20046;-80
2022/11/21 07:37:02;;;;;;;24.23;17.17;;;0.50;99.90;;;;;;5066060;28;20044;-80
2022/11/21 07:39:27;;;;;;;30.17;19.90;;;0.40;99.90;;;;;;5066656;28;20046;-81
2022/11/21 07:41:54;;;;;;;24.77;18.20;;;0.60;99.90;;;;;;5060812;28;20569;-82
2022/11/21 07:44:20;;;;;;;23.98;17.67;;;0.80;99.90;;;;;;5060824;28;20044;-80
2022/11/21 07:46:45;;;;;;;29.02;19.05;;;0.30;99.90;;;;;;5057570;28;20048;-81
2022/11/21 07:49:11;;;;;;;21.92;16.70;;;0.40;99.90;;;;;;5057634;28;20051;-80
2022/11/21 07:51:36;;;;;;;19.75;14.75;;;0.10;99.90;;;;;;5089157;27;20052;-81
2022/11/21 07:54:02;;;;;;;27.85;17.70;;;0.20;99.90;;;;;;5056501;28;20121;-80
2022/11/21 07:56:28;;;;;;;22.23;17.00;;;0.30;99.90;;;;;;5037243;28;20134;-80
2022/11/21 07:58:54;;;;;;;23.92;17.02;;;0.30;99.90;;;;;;5065290;28;20063;-80
2022/11/21 08:01:20;;;;;;;24.40;15.75;;;1.50;99.90;;;;;;5066356;28;20462;-81
2022/11/21 08:03:45;;;;;;;27.10;18.92;;;0.30;99.90;;;;;;5071636;28;20842;-80
2022/11/21 08:06:12;;;;;;;26.65;21.02;;;0.40;99.90;;;;;;5060499;28;20043;-79
2022/11/21 08:08:37;;;;;;;25.27;18.02;;;0.40;99.90;;;;;;5058067;28;20048;-79
2022/11/21 08:11:05;;;;;;;29.73;19.23;;;0.50;99.90;;;;;;5073177;28;20058;-78
2022/11/21 08:13:31;;;;;;;23.63;17.00;;;0.50;99.90;;;;;;5056394;28;20055;-77
2022/11/21 08:15:57;;;;;;;27.50;18.90;;;0.60;99.90;;;;;;5057981;28;20048;-79
2022/11/21 08:18:23;;;;;;;27.52;20.02;;;0.70;99.90;;;;;;5058945;28;20048;-78
2022/11/21 08:20:48;;;;;;;29.77;21.52;;;0.70;99.90;;;;;;5066952;28;20051;-78
2022/11/21 08:23:14;;;;;;;28.67;19.77;;;0.70;99.90;;;;;;5054995;28;20064;-79
2022/11/21 08:25:41;;;;;;;29.58;20.77;;;0.70;99.90;;;;;;5059148;28;20865;-79
2022/11/21 08:28:09;;;;;;;31.92;22.10;;;0.70;99.90;;;;;;5060732;28;20059;-79
2022/11/21 08:30:35;;;;;;;29.65;19.83;;;0.70;99.90;;;;;;5059033;28;20048;-78
2022/11/21 08:33:01;;;;;;;28.33;20.05;;;1.30;99.90;;;;;;5055268;28;20129;-79
2022/11/21 08:35:28;;;;;;;34.08;21.63;;;0.70;99.90;;;;;;5065106;28;20150;-80
2022/11/21 08:38:00;;;;;;;28.65;19.90;;;0.80;99.90;;;;;;5064317;28;20510;-80
2022/11/21 08:40:28;;;;;;;30.27;21.58;;;0.70;99.90;;;;;;5063290;28;20054;-79
2022/11/21 08:42:58;;;;;;;33.05;23.02;;;0.80;99.90;;;;;;5072451;28;20090;-79
2022/11/21 08:45:24;;;;;;;30.50;21.05;;;0.90;99.90;;;;;;5062000;28;20121;-78
2022/11/21 08:47:51;;;;;;;35.92;22.95;;;0.90;99.90;;;;;;5057414;28;20920;-78
2022/11/21 08:50:17;;;;;;;27.83;20.58;;;0.90;99.90;;;;;;5062982;28;20127;-79
2022/11/21 08:52:42;;;;;;;31.20;19.35;;;1.10;99.90;;;;;;5055641;28;20056;-80
2022/11/21 08:55:08;;;;;;;26.70;20.83;;;1.20;99.90;;;;;;5055382;28;20043;-78
2022/11/21 08:57:41;;;;;;;31.13;21.95;;;1.40;99.90;;;;;;5056486;28;20055;-78
2022/11/21 09:00:11;;;;;;;32.28;21.45;;;2.30;99.90;;;;;;5068088;28;20418;-80
2022/11/21 09:02:37;;;;;;;32.47;22.25;;;1.70;99.90;;;;;;5059379;28;20060;-79
2022/11/21 09:05:04;;;;;;;25.13;18.73;;;2.60;99.90;;;;;;5055614;28;20653;-79
2022/11/21 09:07:30;;;;;;;23.60;19.95;;;1.90;99.90;;;;;;5060951;28;20047;-78
2022/11/21 09:09:56;;;;;;;27.80;18.70;;;3.10;99.90;;;;;;5062247;28;20055;-78
2022/11/21 09:12:21;;;;;;;26.98;18.50;;;2.00;99.90;;;;;;5056325;28;20036;-79
2022/11/21 09:20:16;;;;;;;27.92;20.38;;;2.20;99.90;;;;;;5055845;28;20057;-81
2022/11/21 09:22:41;;;;;;;29.10;20.50;;;3.00;99.90;;;;;;5056335;28;20376;-81
2022/11/21 09:25:07;;;;;;;21.13;16.48;;;2.20;99.90;;;;;;5063192;28;20659;-83
2022/11/21 09:27:33;;;;;;;25.10;18.58;;;2.30;99.90;;;;;;5055486;28;20123;-83
2022/11/21 09:29:58;;;;;;;28.27;18.05;;;3.20;99.90;;;;;;5062357;28;20128;-84
2022/11/21 09:32:24;;;;;;;28.00;19.92;;;2.50;99.90;;;;;;5059955;28;20579;-84
2022/11/21 09:34:50;;;;;;;22.20;17.80;;;2.50;99.90;;;;;;5060218;28;20055;-84
2022/11/21 09:37:16;;;;;;;25.35;19.60;;;2.60;99.90;;;;;;5062413;28;20079;-81
2022/11/21 09:39:41;;;;;;;26.98;18.77;;;2.60;99.90;;;;;;5061959;28;20048;-80
2022/11/21 09:42:19;;;;;;;27.10;19.50;;;2.70;99.90;;;;;;5092611;27;20044;-80
2022/11/21 09:44:57;;;;;;;27.52;20.20;;;2.70;99.90;;;;;;5062197;28;20408;-79
2022/11/21 09:47:35;;;;;;;33.78;21.17;;;2.70;99.90;;;;;;5064192;28;20260;-79
2022/11/21 09:50:33;;;;;;;26.30;19.52;;;2.70;99.90;;;;;;5060655;28;20052;-81
2022/11/21 09:53:05;;;;;;;26.88;20.05;;;2.80;99.90;;;;;;5060825;28;20147;-81
2022/11/21 09:55:58;;;;;;;26.20;18.45;;;3.20;99.90;;;;;;5060658;28;20385;-79
2022/11/21 09:58:52;;;;;;;24.42;17.17;;;2.80;99.90;;;;;;5065134;28;20530;-81
2022/11/21 10:01:18;;;;;;;25.63;17.60;;;2.90;99.90;;;;;;5058542;28;20060;-81
2022/11/21 10:03:46;;;;;;;28.10;19.00;;;3.00;99.90;;;;;;5070144;28;20036;-80
2022/11/21 10:06:21;;;;;;;28.42;18.50;;;3.60;99.90;;;;;;5069132;28;20154;-80
2022/11/21 10:09:15;;;;;;;25.70;18.77;;;4.00;99.90;;;;;;5062433;28;20047;-80
2022/11/21 10:15:19;;;;;;;26.13;18.00;;;3.00;99.90;;;;;;5059723;28;20040;-78
2022/11/21 10:17:48;;;;;;;26.77;19.80;;;3.50;99.90;;;;;;5067329;28;20048;-78
2022/11/21 10:20:48;;;;;;;25.00;17.83;;;3.60;99.90;;;;;;5056461;28;20234;-78
2022/11/21 10:23:43;;;;;;;26.13;18.10;;;3.00;99.90;;;;;;5059796;28;20056;-78
2022/11/21 10:26:16;;;;;;;25.17;18.35;;;2.90;99.90;;;;;;5054688;28;20562;-78
2022/11/21 10:29:03;;;;;;;25.70;18.30;;;3.40;99.90;;;;;;5058212;28;20412;-78
2022/11/21 10:31:38;;;;;;;26.45;18.13;;;2.90;99.90;;;;;;5059009;28;20393;-78
2022/11/21 10:34:24;;;;;;;24.38;17.67;;;4.10;99.90;;;;;;5050530;28;20147;-77
2022/11/21 10:37:02;;;;;;;25.10;17.52;;;3.00;99.90;;;;;;5056185;28;20174;-77
2022/11/21 10:39:40;;;;;;;26.60;18.65;;;3.00;99.90;;;;;;5057805;28;20115;-77
2022/11/21 10:42:24;;;;;;;27.33;18.15;;;3.00;99.90;;;;;;5064892;28;20069;-77
2022/11/21 10:47:36;;;;;;;27.70;19.10;;;3.10;99.90;;;;;;5054826;28;20059;-77
2022/11/21 10:50:08;;;;;;;22.02;17.02;;;3.10;99.90;;;;;;5070572;28;20597;-77
2022/11/21 10:52:48;;;;;;;19.25;16.30;;;4.50;99.90;;;;;;5048215;28;20048;-77
2022/11/21 10:55:16;;;;;;;25.35;18.08;;;3.20;99.90;;;;;;5058554;28;20051;-77
2022/11/21 10:57:50;;;;;;;23.38;16.67;;;3.30;99.90;;;;;;5062412;28;20059;-77
2022/11/21 11:00:24;;;;;;;24.75;17.75;;;3.40;99.90;;;;;;5060038;28;20629;-77
2022/11/21 11:03:03;;;;;;;22.25;16.95;;;3.40;99.90;;;;;;5058451;28;20170;-77
2022/11/21 11:05:37;;;;;;;21.63;16.60;;;3.50;99.90;;;;;;5055507;28;20492;-77
2022/11/21 11:08:03;;;;;;;19.85;13.65;;;3.60;99.90;;;;;;5059895;28;20060;-77
2022/11/21 11:10:30;;;;;;;22.13;15.38;;;3.60;99.90;;;;;;5058064;28;20044;-77
2022/11/21 11:16:03;;;;;;;19.50;15.75;;;3.70;99.90;;;;;;5060084;28;20052;-79
2022/11/21 11:18:30;;;;;;;19.02;13.43;;;4.70;99.90;;;;;;5063790;28;20048;-79
2022/11/21 11:21:16;;;;;;;17.73;12.70;;;4.30;99.90;;;;;;5056861;28;20098;-79
2022/11/21 11:23:42;;;;;;;18.55;13.13;;;4.20;99.90;;;;;;5057762;28;20155;-79
2022/11/21 11:26:21;;;;;;;15.98;13.95;;;3.70;99.90;;;;;;5060516;28;20082;-79
2022/11/21 11:28:47;;;;;;;14.48;11.73;;;3.90;99.90;;;;;;5056724;28;20147;-79
2022/11/21 11:31:13;;;;;;;16.80;13.02;;;3.60;99.90;;;;;;5064163;28;20089;-79
2022/11/21 11:33:48;;;;;;;15.38;11.20;;;4.00;99.90;;;;;;5064620;28;20041;-79
2022/11/21 11:36:22;;;;;;;18.88;13.25;;;4.10;99.90;;;;;;5059800;28;20079;-73
2022/11/21 11:38:53;;;;;;;18.25;13.60;;;3.40;99.90;;;;;;5060185;28;20060;-79
2022/11/21 11:47:31;;;;;;;18.90;12.73;;;3.30;99.90;;;;;;5059184;28;20395;-79
2022/11/21 11:50:20;;;;;;;15.55;12.02;;;3.20;99.90;;;;;;5059847;28;20059;-80
2022/11/21 11:52:54;;;;;;;20.95;14.57;;;3.20;99.90;;;;;;5059958;28;20044;-79
2022/11/21 11:55:45;;;;;;;21.23;16.02;;;3.10;99.90;;;;;;5058313;28;20048;-79
2022/11/21 11:58:19;;;;;;;20.50;14.77;;;3.10;99.90;;;;;;5055540;28;20101;-80
2022/11/21 12:00:46;;;;;;;26.83;17.50;;;3.10;99.90;;;;;;5058971;28;20048;-77
2022/11/21 12:03:20;;;;;;;22.38;15.43;;;3.10;99.90;;;;;;5069941;28;20048;-80
2022/11/21 12:06:09;;;;;;;21.52;16.48;;;3.10;99.90;;;;;;5065759;28;20045;-79
2022/11/21 12:08:57;;;;;;;22.75;17.02;;;3.20;99.90;;;;;;5059005;28;20052;-80
2022/11/21 12:17:36;;;;;;;25.27;18.67;;;3.10;99.90;;;;;;5063466;28;20135;-80
2022/11/21 12:20:11;;;;;;;29.13;19.95;;;3.10;99.90;;;;;;5061828;28;20103;-78
2022/11/21 12:22:37;;;;;;;25.98;19.55;;;3.20;99.90;;;;;;5063026;28;20062;-77
2022/11/21 12:25:06;;;;;;;25.83;18.92;;;3.20;99.90;;;;;;5055838;28;20052;-78
2022/11/21 12:27:33;;;;;;;27.25;18.75;;;3.20;99.90;;;;;;5056586;28;20436;-79
2022/11/21 12:30:10;;;;;;;26.10;17.95;;;3.40;99.90;;;;;;5060970;28;20049;-81
2022/11/21 12:33:04;;;;;;;25.85;19.55;;;3.40;99.90;;;;;;5061343;28;20044;-81
2022/11/21 12:36:01;;;;;;;27.98;19.50;;;3.50;99.90;;;;;;5065349;28;20058;-80
2022/11/21 12:39:01;;;;;;;25.33;18.23;;;3.60;99.90;;;;;;5049711;28;20154;-81
2022/11/21 12:44:38;;;;;;;22.55;17.00;;;4.70;99.90;;;;;;5062649;28;20499;-81
2022/11/21 12:47:10;;;;;;;24.15;16.73;;;3.70;99.90;;;;;;5059375;28;20123;-81
2022/11/21 12:56:01;;;;;;;26.02;16.17;;;3.80;99.90;;;;;;5053964;28;20048;-80
2022/11/21 12:58:33;;;;;;;22.20;15.05;;;3.70;99.90;;;;;;5060951;28;20150;-79
2022/11/21 13:01:17;;;;;;;22.20;15.23;;;3.80;99.90;;;;;;5056442;28;20614;-80
2022/11/21 13:03:57;;;;;;;20.08;13.93;;;3.80;99.90;;;;;;5064258;28;20051;-79
2022/11/21 13:06:26;;;;;;;17.48;12.32;;;4.30;99.90;;;;;;5058764;28;20874;-80
2022/11/21 13:08:56;;;;;;;19.97;14.17;;;3.80;99.90;;;;;;5051324;28;20048;-81
2022/11/21 13:12:00;;;;;;;18.20;13.70;;;4.30;99.90;;;;;;5060027;28;20515;-81
2022/11/21 13:14:35;;;;;;;17.33;12.40;;;3.90;99.90;;;;;;5054002;28;20133;-81
2022/11/21 13:17:25;;;;;;;19.83;12.90;;;3.90;99.90;;;;;;5061119;28;20962;-80
2022/11/21 13:20:04;;;;;;;16.85;11.85;;;3.90;99.90;;;;;;5059365;28;20055;-81
2022/11/21 13:22:35;;;;;;;20.08;12.13;;;4.00;99.90;;;;;;5065025;28;20052;-80
2022/11/21 13:25:29;;;;;;;20.00;13.32;;;4.10;99.90;;;;;;5062470;28;20044;-80
2022/11/21 13:28:17;;;;;;;20.48;12.30;;;4.00;99.90;;;;;;5061273;28;20878;-80
2022/11/21 13:30:46;;;;;;;17.08;11.95;;;4.10;99.90;;;;;;5056758;28;20125;-80